METAR Data
IDs: Format: Raw Decoded Include TAF

Data at: 0957 UTC 18 Jan 2022

KLIC 180955Z AUTO 36005KT 10SM CLR M07/M10 A2983 RMK AO2 SLP087 T10671100 $
KLIC 180855Z AUTO 01005KT 10SM CLR M07/M10 A2985 RMK AO2 SLP091 T10671100 58013 $
KLIC 180755Z AUTO 01006KT 10SM CLR M07/M10 A2986 RMK AO2 SLP098 T10721100 $
KLIC 180655Z AUTO 33003KT 10SM CLR M07/M10 A2988 RMK AO2 SLP104 T10671100 401721117 $
KLIC 180555Z AUTO 35007KT 10SM CLR M06/M10 A2989 RMK AO2 SLP113 T10611100 10078 21061 58005 $
KLIC 180455Z AUTO 32003KT 10SM CLR M05/M09 A2990 RMK AO2 SLP126 T10501094 $
KLIC 180355Z AUTO 35004KT 10SM CLR M06/M09 A2990 RMK AO2 SLP146 T10561094 $
KLIC 180255Z AUTO 00000KT 10SM CLR M03/M09 A2991 RMK AO2 SLP163 T10331089 50007 $
KLIC 180155Z AUTO 36004KT 10SM CLR M03/M09 A2991 RMK AO2 SLP170 T10331094 $
KLIC 180055Z AUTO 24003KT 10SM CLR 03/M09 A2990 RMK AO2 SLP138 T00281094 $
KLIC 172355Z AUTO 04006KT 10SM CLR 08/M09 A2988 RMK AO2 SLP115 T00781094 10172 20078 51001 $
KLIC 172255Z AUTO 04009KT 10SM CLR 12/M09 A2988 RMK AO2 SLP104 T01171094
KLIC 172155Z AUTO 04008KT 10SM CLR 16/M12 A2988 RMK AO2 SLP091 T01611117
KLIC 172055Z AUTO 04008KT 10SM CLR 17/M12 A2988 RMK AO2 SLP099 T01721117 56020
KLIC 171955Z AUTO VRB04KT 10SM CLR 17/M12 A2989 RMK AO2 PRESFR SLP112 T01671122
KLIC 171855Z AUTO 35008KT 10SM CLR 17/M13 A2992 RMK AO2 SLP126 T01671128
KLIC 171755Z AUTO 27003KT 10SM CLR 14/M07 A2995 RMK AO2 SLP138 T01391072 10139 21111 58005
KLIC 171655Z AUTO 35003KT 10SM CLR 08/M06 A2997 RMK AO2 SLP162 T00831061
KLIC 171555Z AUTO 31003KT 10SM CLR 01/M06 A2998 RMK AO2 SLP180 T00061056
KLIC 171455Z AUTO 35006KT 10SM CLR M08/M11 A2997 RMK AO2 SLP191 T10781111 56006
KLIC 171355Z AUTO 35006KT 10SM CLR M11/M13 A2997 RMK AO2 SLP195 T11061133
KLIC 171255Z AUTO 00000KT 10SM CLR M06/M10 A2997 RMK AO2 SLP175 T10561100
KLIC 171155Z AUTO 17004KT 10SM CLR M03/M09 A2999 RMK AO2 SLP162 T10281089 10000 21117 56017
KLIC 171055Z AUTO 00000KT 10SM CLR M02/M08 A2999 RMK AO2 SLP151 T10171078
KLIC 170955Z AUTO VRB03KT 10SM CLR 00/M08 A3002 RMK AO2 SLP154 T00001078
KLIC 170855Z AUTO 14004KT 10SM CLR M05/M09 A3004 RMK AO2 SLP172 T10501094 56019
KLIC 170755Z AUTO 16005KT 10SM CLR M09/M12 A3007 RMK AO2 SLP194 T10941122
KLIC 170655Z AUTO 00000KT 10SM CLR M11/M13 A3008 RMK AO2 SLP196 T11061133 401111111
KLIC 170555Z AUTO 00000KT 10SM CLR M09/M12 A3011 RMK AO2 SLP206 T10891117 10033 21100 58008
KLIC 170455Z AUTO 02003KT 10SM CLR M09/M12 A3012 RMK AO2 SLP215 T10941122
KLIC 170355Z AUTO 36003KT 10SM CLR M09/M11 A3013 RMK AO2 SLP224 T10891111
KLIC 170255Z AUTO 34003KT 10SM CLR M07/M10 A3014 RMK AO2 SLP236 T10721100 50011
KLIC 170155Z AUTO 31003KT 10SM CLR M05/M09 A3015 RMK AO2 SLP242 T10501089
KLIC 170055Z AUTO 34007KT 10SM CLR M02/M08 A3012 RMK AO2 SLP222 T10171078
KLIC 162355Z AUTO 02010KT 10SM CLR 04/M07 A3010 RMK AO2 SLP202 T00391072 10111 20039 51009
KLIC 162255Z AUTO 01011KT 10SM CLR 08/M10 A3010 RMK AO2 SLP192 T00781100